createdAt,value
2022-10-09T00:00:50.078Z,60.50
2022-10-09T00:03:17.975Z,62.10
2022-10-09T00:05:45.509Z,63.83
2022-10-09T00:08:12.092Z,60.83
2022-10-09T00:10:42.984Z,66.60
2022-10-09T00:13:10.172Z,48.80
2022-10-09T00:15:41.771Z,51.92
2022-10-09T00:18:10.125Z,51.95
2022-10-09T00:20:43.171Z,65.70
2022-10-09T00:23:12.004Z,62.75
2022-10-09T00:25:38.680Z,51.13
2022-10-09T00:28:05.448Z,63.45
2022-10-09T00:30:32.444Z,56.97
2022-10-09T00:32:59.060Z,60.08
2022-10-09T00:35:25.991Z,62.75
2022-10-09T00:37:52.579Z,63.15
2022-10-09T00:40:19.298Z,58.25
2022-10-09T00:42:46.031Z,64.43
2022-10-09T00:45:20.500Z,55.33
2022-10-09T00:47:52.391Z,66.78
2022-10-09T00:52:57.407Z,63.78
2022-10-09T00:56:01.461Z,67.80
2022-10-09T00:58:28.097Z,67.28
2022-10-09T01:00:54.709Z,61.90
2022-10-09T01:03:21.282Z,66.25
2022-10-09T01:06:10.552Z,64.18
2022-10-09T01:09:00.300Z,77.75
2022-10-09T01:12:00.676Z,67.00
2022-10-09T01:14:39.311Z,71.80
2022-10-09T01:17:21.145Z,65.75
2022-10-09T01:20:01.212Z,61.67
2022-10-09T01:22:49.040Z,59.33
2022-10-09T01:25:24.226Z,64.70
2022-10-09T01:27:51.021Z,64.35
2022-10-09T01:30:17.764Z,70.80
2022-10-09T01:32:50.044Z,70.63
2022-10-09T01:35:17.984Z,66.22
2022-10-09T01:37:46.497Z,72.03
2022-10-09T01:40:16.337Z,74.00
2022-10-09T01:42:43.768Z,57.85
2022-10-09T01:45:10.889Z,69.70
2022-10-09T01:47:38.232Z,70.50
2022-10-09T01:50:16.052Z,68.13
2022-10-09T01:52:42.580Z,65.80
2022-10-09T01:55:34.312Z,57.15
2022-10-09T01:58:22.029Z,68.22
2022-10-09T02:00:56.475Z,66.93
2022-10-09T02:03:25.955Z,63.53
2022-10-09T02:05:54.545Z,69.63
2022-10-09T02:08:23.868Z,73.22
2022-10-09T02:10:54.248Z,66.75
2022-10-09T02:13:21.514Z,61.13
2022-10-09T02:16:22.912Z,69.47
2022-10-09T02:19:15.679Z,62.90
2022-10-09T02:21:59.600Z,66.13
2022-10-09T02:24:27.458Z,63.63
2022-10-09T02:26:56.215Z,71.78
2022-10-09T02:29:23.126Z,72.40
2022-10-09T02:31:49.821Z,67.30
2022-10-09T02:34:19.525Z,69.15
2022-10-09T02:36:47.447Z,66.88
2022-10-09T02:39:14.243Z,70.32
2022-10-09T02:41:40.941Z,74.25
2022-10-09T02:44:07.719Z,70.13
2022-10-09T02:46:35.110Z,80.22
2022-10-09T02:49:01.763Z,63.80
2022-10-09T02:51:28.907Z,71.10
2022-10-09T02:53:55.867Z,69.70
2022-10-09T02:56:23.727Z,67.07
2022-10-09T02:58:50.458Z,74.65
2022-10-09T03:01:17.786Z,67.55
2022-10-09T03:03:45.168Z,66.55
2022-10-09T03:06:17.769Z,60.88
2022-10-09T03:08:47.069Z,73.38
2022-10-09T03:15:05.276Z,69.20
2022-10-09T03:17:31.809Z,67.15
2022-10-09T03:19:58.320Z,59.15
2022-10-09T03:22:24.929Z,60.78
2022-10-09T03:24:51.489Z,63.58
2022-10-09T03:27:18.038Z,66.47
2022-10-09T03:29:44.646Z,64.55
2022-10-09T03:32:11.281Z,69.97
2022-10-09T03:34:37.903Z,67.45
2022-10-09T03:37:04.825Z,70.40
2022-10-09T03:39:32.227Z,65.38
2022-10-09T03:41:58.825Z,59.95
2022-10-09T03:44:25.358Z,66.78
2022-10-09T03:46:52.807Z,66.05
2022-10-09T03:49:19.469Z,67.03
2022-10-09T03:51:46.017Z,59.85
2022-10-09T03:54:12.619Z,65.57
2022-10-09T03:56:45.018Z,62.85
2022-10-09T03:59:11.628Z,69.35
2022-10-09T04:01:38.302Z,67.30
2022-10-09T04:04:04.937Z,65.30
2022-10-09T04:06:31.507Z,55.45
2022-10-09T04:08:58.085Z,69.75
2022-10-09T04:11:24.716Z,68.38
2022-10-09T04:13:51.301Z,67.65
2022-10-09T04:16:18.022Z,65.07
2022-10-09T04:18:44.866Z,67.63
2022-10-09T04:21:13.050Z,63.83
2022-10-09T04:23:39.940Z,54.50
2022-10-09T04:26:06.891Z,62.20
2022-10-09T04:28:33.826Z,70.72
2022-10-09T04:31:01.677Z,67.60
2022-10-09T04:33:28.667Z,70.15
2022-10-09T04:35:56.560Z,68.70
2022-10-09T04:38:24.472Z,74.85
2022-10-09T04:41:02.710Z,74.78
2022-10-09T04:43:30.069Z,67.72
2022-10-09T04:45:56.967Z,77.88
2022-10-09T04:48:24.091Z,70.03
2022-10-09T04:50:50.700Z,71.05
2022-10-09T04:53:17.553Z,70.47
2022-10-09T04:55:45.206Z,69.88
2022-10-09T04:58:13.169Z,74.55
2022-10-09T05:00:44.770Z,68.82
2022-10-09T05:03:11.860Z,74.57
2022-10-09T05:05:39.012Z,73.57
2022-10-09T05:08:06.235Z,70.78
2022-10-09T05:10:33.112Z,77.15
2022-10-09T05:12:59.970Z,75.65
2022-10-09T05:15:27.221Z,72.80
2022-10-09T05:17:53.867Z,74.28
2022-10-09T05:20:20.496Z,71.65
2022-10-09T05:22:48.110Z,68.40
2022-10-09T05:25:15.462Z,64.32
2022-10-09T05:27:42.049Z,64.93
2022-10-09T05:30:09.498Z,67.07
2022-10-09T05:32:36.160Z,66.45
2022-10-09T05:35:02.938Z,64.55
2022-10-09T05:37:29.532Z,70.50
2022-10-09T05:39:56.079Z,66.38
2022-10-09T05:42:22.626Z,63.90
2022-10-09T05:44:49.179Z,74.78
2022-10-09T05:47:17.947Z,67.05
2022-10-09T05:49:44.516Z,62.88
2022-10-09T05:52:11.146Z,60.30
2022-10-09T05:54:37.729Z,63.20
2022-10-09T05:57:04.986Z,67.78
2022-10-09T05:59:31.570Z,70.55
2022-10-09T06:01:59.214Z,52.75
2022-10-09T06:04:25.914Z,60.35
2022-10-09T06:06:52.713Z,56.83
2022-10-09T06:09:23.143Z,59.88
2022-10-09T06:11:51.165Z,61.95
2022-10-09T06:14:18.556Z,63.92
2022-10-09T06:16:45.725Z,58.25
2022-10-09T06:19:14.805Z,63.90
2022-10-09T06:21:42.108Z,61.88
2022-10-09T06:24:12.042Z,62.30
2022-10-09T06:26:38.608Z,60.58
2022-10-09T06:29:05.174Z,58.55
2022-10-09T06:31:33.629Z,58.50
2022-10-09T06:34:01.841Z,57.38
2022-10-09T06:36:30.850Z,57.58
2022-10-09T06:38:59.644Z,60.63
2022-10-09T06:41:32.908Z,55.20
2022-10-09T06:44:02.390Z,55.65
2022-10-09T06:46:32.339Z,57.35
2022-10-09T06:48:59.907Z,58.38
2022-10-09T06:51:28.132Z,59.17
2022-10-09T06:53:57.382Z,52.95
2022-10-09T06:56:25.738Z,50.50
2022-10-09T06:58:52.528Z,62.80
2022-10-09T07:01:24.023Z,56.25
2022-10-09T07:03:59.230Z,52.58
2022-10-09T07:06:31.357Z,53.05
2022-10-09T07:09:04.263Z,55.58
2022-10-09T07:11:33.651Z,48.03
2022-10-09T07:14:03.043Z,44.75
2022-10-09T07:16:35.928Z,49.97
2022-10-09T07:19:07.612Z,49.92
2022-10-09T07:24:02.266Z,45.47
2022-10-09T07:26:30.747Z,46.22
2022-10-09T07:28:58.038Z,45.50
2022-10-09T07:31:25.277Z,55.42
2022-10-09T07:33:53.975Z,45.80
2022-10-09T07:36:21.086Z,50.80
2022-10-09T07:38:53.156Z,46.30
2022-10-09T07:41:21.166Z,43.60
2022-10-09T07:43:47.792Z,48.53
2022-10-09T07:46:16.671Z,48.45
2022-10-09T07:48:44.067Z,42.65
2022-10-09T07:51:17.684Z,46.20
2022-10-09T07:53:45.323Z,40.20
2022-10-09T07:56:15.669Z,38.78
2022-10-09T07:58:43.036Z,40.22
2022-10-09T08:01:13.994Z,40.13
2022-10-09T08:03:42.913Z,37.10
2022-10-09T08:06:10.288Z,45.45
2022-10-09T08:08:36.900Z,38.60
2022-10-09T08:11:12.166Z,40.00
2022-10-09T08:13:39.603Z,38.22
2022-10-09T08:16:07.857Z,40.80
2022-10-09T08:18:35.207Z,29.83
2022-10-09T08:21:05.939Z,32.50
2022-10-09T08:23:32.543Z,28.00
2022-10-09T08:25:59.830Z,25.00
2022-10-09T08:28:26.575Z,29.30
2022-10-09T08:30:53.943Z,34.60
2022-10-09T08:33:22.195Z,29.83
2022-10-09T08:35:52.844Z,23.70
2022-10-09T08:38:45.667Z,30.23
2022-10-09T08:41:28.044Z,25.65
2022-10-09T08:44:02.824Z,28.50
2022-10-09T08:46:44.631Z,25.77
2022-10-09T08:51:46.365Z,33.88
2022-10-09T08:54:38.120Z,27.20
2022-10-09T08:57:19.817Z,36.38
2022-10-09T08:59:47.108Z,30.70
2022-10-09T09:02:19.537Z,33.17
2022-10-09T09:05:08.590Z,32.33
2022-10-09T09:08:00.132Z,30.80
2022-10-09T09:10:39.244Z,34.25
2022-10-09T09:13:33.238Z,27.52
2022-10-09T09:16:25.098Z,28.52
2022-10-09T09:19:33.369Z,27.88
2022-10-09T09:22:00.608Z,32.50
2022-10-09T09:24:39.295Z,29.27
2022-10-09T09:27:30.829Z,32.60
2022-10-09T09:30:01.319Z,26.85
2022-10-09T09:32:30.001Z,27.83
2022-10-09T09:35:29.637Z,30.23
2022-10-09T09:37:56.426Z,23.92
2022-10-09T09:40:38.859Z,28.13
2022-10-09T09:43:18.841Z,19.63
2022-10-09T09:45:46.487Z,27.67
2022-10-09T09:48:35.891Z,28.05
2022-10-09T09:51:29.298Z,36.95
2022-10-09T09:54:06.013Z,24.73
2022-10-09T09:59:37.111Z,23.33
2022-10-09T10:02:14.659Z,30.27
2022-10-09T10:05:01.782Z,24.90
2022-10-09T10:07:33.936Z,33.08
2022-10-09T10:10:24.686Z,26.45
2022-10-09T10:12:52.354Z,26.42
2022-10-09T10:15:25.735Z,30.05
2022-10-09T10:18:06.679Z,33.97
2022-10-09T10:20:45.149Z,34.80
2022-10-09T10:23:35.709Z,33.00
2022-10-09T10:26:09.130Z,34.65
2022-10-09T10:28:48.957Z,25.65
2022-10-09T10:31:38.383Z,23.92
2022-10-09T10:34:21.355Z,30.40
2022-10-09T10:37:00.999Z,24.52
2022-10-09T10:42:05.629Z,32.25
2022-10-09T10:44:52.159Z,26.58
2022-10-09T10:47:25.198Z,27.10
2022-10-09T10:49:52.004Z,24.40
2022-10-09T10:52:30.955Z,21.13
2022-10-09T10:55:05.885Z,18.77
2022-10-09T10:57:51.643Z,23.00
2022-10-09T11:00:18.577Z,25.58
2022-10-09T11:03:10.131Z,25.95
2022-10-09T11:05:40.942Z,22.15
2022-10-09T11:08:10.543Z,21.37
2022-10-09T11:10:54.774Z,19.23
2022-10-09T11:13:40.247Z,22.15
2022-10-09T11:16:24.066Z,24.50
2022-10-09T11:18:56.857Z,23.52
2022-10-09T11:21:50.635Z,17.88
2022-10-09T11:24:44.999Z,22.25
2022-10-09T11:27:40.116Z,20.67
2022-10-09T11:30:11.681Z,17.60
2022-10-09T11:35:29.306Z,17.25
2022-10-09T11:38:02.695Z,16.45
2022-10-09T11:40:33.950Z,18.27
2022-10-09T11:43:30.383Z,20.48
2022-10-09T11:46:09.530Z,18.50
2022-10-09T11:48:53.085Z,19.15
2022-10-09T11:51:29.344Z,18.20
2022-10-09T11:53:57.109Z,17.77
2022-10-09T11:56:27.464Z,17.40
2022-10-09T11:58:58.700Z,14.65
2022-10-09T12:01:48.100Z,27.85
2022-10-09T12:04:20.871Z,17.83
2022-10-09T12:07:01.045Z,24.25
2022-10-09T12:09:32.326Z,20.95
2022-10-09T12:12:04.113Z,19.98
2022-10-09T12:14:30.935Z,21.60
2022-10-09T12:16:59.452Z,18.65
2022-10-09T12:19:34.849Z,17.85
2022-10-09T12:22:05.032Z,18.80
2022-10-09T12:24:44.694Z,26.77
2022-10-09T12:27:38.378Z,16.65
2022-10-09T12:30:14.299Z,18.50
2022-10-09T12:32:46.963Z,15.57
2022-10-09T12:35:33.637Z,20.25
2022-10-09T12:38:00.891Z,22.98
2022-10-09T12:40:31.674Z,21.33
2022-10-09T12:43:01.368Z,22.00
2022-10-09T12:45:30.910Z,19.17
2022-10-09T12:48:00.212Z,21.38
2022-10-09T12:50:33.306Z,15.55
2022-10-09T12:53:03.719Z,22.75
2022-10-09T12:55:36.018Z,17.08
2022-10-09T12:58:14.466Z,16.98
2022-10-09T13:00:41.484Z,17.02
2022-10-09T13:03:22.787Z,16.95
2022-10-09T13:05:49.862Z,12.63
2022-10-09T13:08:31.032Z,19.63
2022-10-09T13:11:10.265Z,15.00
2022-10-09T13:13:38.033Z,21.23
2022-10-09T13:16:11.645Z,15.73
2022-10-09T13:18:39.102Z,12.52
2022-10-09T13:21:24.524Z,12.73
2022-10-09T13:23:52.254Z,13.80
2022-10-09T13:26:29.221Z,17.63
2022-10-09T13:28:59.276Z,15.95
2022-10-09T13:31:26.591Z,16.10
2022-10-09T13:33:53.852Z,13.10
2022-10-09T13:36:21.804Z,17.63
2022-10-09T13:38:50.235Z,18.20
2022-10-09T13:41:23.014Z,17.23
2022-10-09T13:43:51.197Z,17.08
2022-10-09T13:46:17.850Z,23.48
2022-10-09T13:48:45.262Z,17.70
2022-10-09T13:51:12.147Z,14.68
2022-10-09T13:53:39.513Z,15.75
2022-10-09T13:56:08.611Z,15.20
2022-10-09T13:58:36.305Z,20.80
2022-10-09T14:01:03.170Z,15.15
2022-10-09T14:03:30.585Z,17.95
2022-10-09T14:05:59.234Z,18.48
2022-10-09T14:08:26.514Z,13.60
2022-10-09T14:10:53.242Z,13.80
2022-10-09T14:13:21.260Z,13.13
2022-10-09T14:15:48.328Z,13.02
2022-10-09T14:18:15.556Z,14.63
2022-10-09T14:20:42.131Z,16.95
2022-10-09T14:23:09.999Z,16.42
2022-10-09T14:25:36.738Z,12.80
2022-10-09T14:28:04.271Z,14.13
2022-10-09T14:30:31.778Z,15.80
2022-10-09T14:32:59.346Z,9.30
2022-10-09T14:35:26.074Z,8.55
2022-10-09T14:37:53.435Z,9.70
2022-10-09T14:40:20.026Z,11.02
2022-10-09T14:42:47.772Z,16.67
2022-10-09T14:45:15.415Z,11.85
2022-10-09T14:47:42.042Z,12.70
2022-10-09T14:50:09.838Z,13.02
2022-10-09T14:52:37.385Z,11.30
2022-10-09T14:55:05.837Z,11.27
2022-10-09T14:57:35.386Z,8.15
2022-10-09T15:00:05.135Z,14.43
2022-10-09T15:02:33.638Z,9.43
2022-10-09T15:05:01.080Z,16.85
2022-10-09T15:07:28.253Z,51.97
2022-10-09T15:09:57.680Z,25.42
2022-10-09T15:12:24.221Z,17.48
2022-10-09T15:14:51.950Z,19.88
2022-10-09T15:17:18.547Z,13.18
2022-10-09T15:19:45.830Z,22.20
2022-10-09T15:22:12.409Z,12.95
2022-10-09T15:24:39.660Z,17.83
2022-10-09T15:27:06.246Z,11.50
2022-10-09T15:29:33.464Z,13.50
2022-10-09T15:32:02.105Z,14.70
2022-10-09T15:34:29.958Z,13.70
2022-10-09T15:36:56.594Z,12.75
2022-10-09T15:39:24.417Z,13.98
2022-10-09T15:41:50.985Z,9.35
2022-10-09T15:44:20.864Z,11.43
2022-10-09T15:46:48.793Z,16.77
2022-10-09T15:49:16.222Z,19.02
2022-10-09T15:51:43.074Z,19.95
2022-10-09T15:54:12.824Z,31.10
2022-10-09T15:56:40.504Z,29.75
2022-10-09T15:59:11.068Z,47.55
2022-10-09T16:01:37.726Z,31.70
2022-10-09T16:04:05.172Z,37.40
2022-10-09T16:06:31.722Z,41.83
2022-10-09T16:08:59.994Z,35.28
2022-10-09T16:11:27.251Z,49.47
2022-10-09T16:13:55.332Z,35.33
2022-10-09T16:16:25.102Z,42.65
2022-10-09T16:18:52.316Z,37.60
2022-10-09T16:21:25.894Z,38.40
2022-10-09T16:23:58.077Z,34.80
2022-10-09T16:26:26.884Z,38.92
2022-10-09T16:28:53.569Z,44.10
2022-10-09T16:31:30.923Z,37.13
2022-10-09T16:33:58.164Z,35.20
2022-10-09T16:36:25.517Z,35.50
2022-10-09T16:38:52.090Z,40.40
2022-10-09T16:41:22.415Z,42.58
2022-10-09T16:43:51.452Z,45.53
2022-10-09T16:46:25.672Z,59.80
2022-10-09T16:48:54.126Z,65.13
2022-10-09T16:51:27.848Z,59.20
2022-10-09T16:53:57.686Z,58.90
2022-10-09T16:56:29.002Z,54.28
2022-10-09T16:58:59.343Z,48.20
2022-10-09T17:01:28.734Z,47.95
2022-10-09T17:03:57.052Z,46.85
2022-10-09T17:06:25.068Z,52.55
2022-10-09T17:08:56.953Z,52.30
2022-10-09T17:11:26.439Z,47.95
2022-10-09T17:13:56.848Z,53.03
2022-10-09T17:16:26.857Z,57.95
2022-10-09T17:18:54.476Z,74.13
2022-10-09T17:21:22.504Z,68.47
2022-10-09T17:23:53.686Z,82.10
2022-10-09T17:26:25.286Z,83.07
2022-10-09T17:28:52.641Z,77.95
2022-10-09T17:31:23.321Z,81.85
2022-10-09T17:33:53.246Z,71.90
2022-10-09T17:36:23.012Z,73.57
2022-10-09T17:38:50.673Z,80.28
2022-10-09T17:41:20.058Z,80.55
2022-10-09T17:43:47.085Z,78.65
2022-10-09T17:46:15.629Z,70.90
2022-10-09T17:48:45.205Z,77.03
2022-10-09T17:51:19.306Z,67.13
2022-10-09T17:53:49.849Z,59.30
2022-10-09T17:56:17.948Z,63.40
2022-10-09T17:58:47.504Z,54.03
2022-10-09T18:01:17.021Z,62.58
2022-10-09T18:03:44.407Z,51.80
2022-10-09T18:06:16.258Z,45.35
2022-10-09T18:11:17.315Z,52.03
2022-10-09T18:13:44.996Z,54.22
2022-10-09T18:16:16.051Z,53.70
2022-10-09T18:18:43.683Z,57.17
2022-10-09T18:21:14.365Z,44.05
2022-10-09T18:23:40.935Z,44.95
2022-10-09T18:26:18.191Z,49.35
2022-10-09T18:28:48.250Z,44.58
2022-10-09T18:31:23.167Z,51.08
2022-10-09T18:33:50.809Z,56.60
2022-10-09T18:36:23.207Z,44.72
2022-10-09T18:38:55.502Z,42.08
2022-10-09T18:41:23.954Z,51.17
2022-10-09T18:43:51.903Z,63.33
2022-10-09T18:46:23.580Z,52.85
2022-10-09T18:48:51.564Z,68.75
2022-10-09T18:51:26.165Z,58.10
2022-10-09T18:53:57.840Z,53.85
2022-10-09T18:56:26.182Z,53.90
2022-10-09T18:58:52.924Z,58.83
2022-10-09T19:01:20.917Z,50.70
2022-10-09T19:03:50.124Z,49.97
2022-10-09T19:06:20.307Z,50.50
2022-10-09T19:08:47.005Z,65.03
2022-10-09T19:11:14.598Z,64.63
2022-10-09T19:13:47.153Z,69.82
2022-10-09T19:16:13.747Z,64.90
2022-10-09T19:18:41.296Z,75.57
2022-10-09T19:21:12.696Z,59.95
2022-10-09T19:23:39.997Z,72.32
2022-10-09T19:26:06.744Z,70.60
2022-10-09T19:28:39.268Z,65.45
2022-10-09T19:31:07.796Z,54.03
2022-10-09T19:33:35.865Z,59.63
2022-10-09T19:36:02.856Z,70.10
2022-10-09T19:38:30.470Z,57.85
2022-10-09T19:41:04.017Z,62.53
2022-10-09T19:43:34.171Z,66.47
2022-10-09T19:46:12.640Z,62.17
2022-10-09T19:48:40.151Z,57.80
2022-10-09T19:51:08.774Z,55.05
2022-10-09T19:53:36.832Z,65.63
2022-10-09T19:56:18.723Z,58.78
2022-10-09T19:58:51.115Z,69.07
2022-10-09T20:01:20.708Z,64.53
2022-10-09T20:03:49.633Z,60.20
2022-10-09T20:06:16.476Z,55.50
2022-10-09T20:08:45.920Z,61.65
2022-10-09T20:11:13.831Z,64.70
2022-10-09T20:13:43.165Z,63.03
2022-10-09T20:16:12.264Z,59.70
2022-10-09T20:18:41.764Z,60.58
2022-10-09T20:21:14.202Z,63.35
2022-10-09T20:23:42.094Z,56.30
2022-10-09T20:26:12.641Z,61.20
2022-10-09T20:28:40.230Z,67.75
2022-10-09T20:31:09.139Z,56.38
2022-10-09T20:33:38.725Z,60.05
2022-10-09T20:36:06.666Z,58.08
2022-10-09T20:38:34.924Z,59.00
2022-10-09T20:41:04.369Z,49.53
2022-10-09T20:43:31.759Z,46.88
2022-10-09T20:45:58.390Z,54.58
2022-10-09T20:48:25.723Z,63.25
2022-10-09T20:50:52.323Z,58.10
2022-10-09T20:53:19.707Z,59.70
2022-10-09T20:55:47.038Z,52.75
2022-10-09T20:58:14.443Z,51.85
2022-10-09T21:00:44.518Z,54.42
2022-10-09T21:03:13.050Z,51.97
2022-10-09T21:05:41.895Z,50.72
2022-10-09T21:08:09.706Z,55.80
2022-10-09T21:10:44.848Z,49.38
2022-10-09T21:13:12.552Z,49.72
2022-10-09T21:15:48.098Z,55.90
2022-10-09T21:18:17.152Z,46.00
2022-10-09T21:20:45.533Z,45.42
2022-10-09T21:23:14.930Z,46.00
2022-10-09T21:25:53.238Z,40.75
2022-10-09T21:28:22.926Z,48.10
2022-10-09T21:30:50.168Z,50.38
2022-10-09T21:33:18.567Z,46.63
2022-10-09T21:35:48.496Z,37.55
2022-10-09T21:38:20.607Z,46.22
2022-10-09T21:40:47.652Z,40.67
2022-10-09T21:43:14.990Z,43.08
2022-10-09T21:45:41.962Z,47.97
2022-10-09T21:48:10.549Z,48.83
2022-10-09T21:50:37.223Z,48.92
2022-10-09T21:53:04.724Z,49.13
2022-10-09T21:55:32.117Z,48.92
2022-10-09T21:57:58.786Z,43.88
2022-10-09T22:00:26.158Z,46.83
2022-10-09T22:02:53.110Z,51.67
2022-10-09T22:05:20.472Z,57.47
2022-10-09T22:07:47.079Z,41.80
2022-10-09T22:10:14.310Z,54.92
2022-10-09T22:12:40.864Z,48.80
2022-10-09T22:15:08.238Z,58.45
2022-10-09T22:17:34.805Z,56.70
2022-10-09T22:20:01.389Z,56.42
2022-10-09T22:22:27.961Z,58.55
2022-10-09T22:24:54.603Z,57.63
2022-10-09T22:27:21.453Z,58.90
2022-10-09T22:29:48.267Z,60.20
2022-10-09T22:32:15.044Z,64.70
2022-10-09T22:34:41.668Z,62.70
2022-10-09T22:37:08.308Z,61.47
2022-10-09T22:39:35.528Z,57.95
2022-10-09T22:42:02.151Z,58.42
2022-10-09T22:44:29.110Z,48.70
2022-10-09T22:46:55.665Z,55.47
2022-10-09T22:49:22.375Z,45.90
2022-10-09T22:51:49.074Z,64.35
2022-10-09T22:54:15.682Z,61.55
2022-10-09T22:56:44.974Z,60.13
2022-10-09T22:59:16.296Z,58.58
2022-10-09T23:01:49.083Z,60.88
2022-10-09T23:04:17.974Z,55.38
2022-10-09T23:06:45.308Z,63.55
2022-10-09T23:09:14.799Z,65.53
2022-10-09T23:11:42.166Z,61.15
2022-10-09T23:14:18.049Z,66.43
2022-10-09T23:16:44.612Z,51.65
2022-10-09T23:19:11.620Z,57.55
2022-10-09T23:21:40.858Z,55.03
2022-10-09T23:24:09.548Z,57.42
2022-10-09T23:26:38.216Z,53.95
2022-10-09T23:29:07.709Z,55.53
2022-10-09T23:31:35.189Z,49.13
2022-10-09T23:34:03.869Z,60.92
2022-10-09T23:36:30.621Z,75.60
2022-10-09T23:38:58.479Z,59.60
2022-10-09T23:41:27.113Z,64.40
2022-10-09T23:43:54.049Z,68.18
2022-10-09T23:46:29.336Z,72.78
2022-10-09T23:48:56.015Z,63.53
2022-10-09T23:51:25.043Z,69.80
2022-10-09T23:53:52.426Z,69.50
2022-10-09T23:56:20.954Z,67.13
2022-10-09T23:58:48.160Z,60.38
